Salem, OR (97301)

9:35 PM PDT on August 20, 2014 (GMT -0700)
Center & Cordon NE | Change Station
CLOSE
Current Station
Personal Weather Station
Location: Salem, OR
Elevation: 210 ft
Nearby Weather Stations

Elev 210 ft 44.94 °N, 122.96 °W | Updated 17 seconds ago

Clear
Clear
64.3 °F
Feels Like 64.3 °F
N
4.4
Wind Variable Wind from WNW
Gusts 8.1 mph

Today
High -- | Low -- °F
--% Chance of Precip.
Yesterday
High -- | Low -- °F
Precip. -- in
6:19 AM 8:09 PM
Waning Crescent, 17% visible
Pressure 29.97 in
Visibility 10.0 miles
Clouds Clear
Dew Point 50 °F
Humidity 60%
Rainfall 0.00 in
Snow Depth Not available.
UV 0 out of 12
Pollen 3.90 out of 12
Air Quality Not available.
Flu Activity Not available.
METAR KSLE 210356Z AUTO 30004KT 10SM CLR 19/09 A2997 RMK AO2 SLP148 T01940089

More Conditions Fewer Conditions

Pressure 29.97 in
Visibility 10.0 miles
Clouds Clear
Dew Point 50 °F
Humidity 60%
Rainfall 0.00 in
Snow Depth Not available.
UV 0 out of 12
Pollen 3.90 out of 12
Air Quality Not available.
Flu Activity Not available.
METAR KSLE 210356Z AUTO 30004KT 10SM CLR 19/09 A2997 RMK AO2 SLP148 T01940089

More Conditions Fewer Conditions

10-Day Weather Forecast

Almanac

Astronomy

Aug. 20, 2014 Rise Set
Actual Time 6:19 AM PDT 8:09 PM PDT
Civil Twilight 5:48 AM PDT 8:40 PM PDT
Nautical Twilight 5:10 AM PDT 9:19 PM PDT
Astronomical Twilight 4:28 AM PDT 10:00 PM PDT
Moon 1:59 AM PDT (8/20) 5:03 PM PDT (8/20)
Length of Visible Light 14h 52m
Length of Day
13h 49m
Tomorrow will be 2m 53s shorter.
Waning Crescent, 17% of the Moon is Illuminated
Aug 21
Waning Crescent
Aug 25
New
Sep 2
First Quarter
Sep 8
Full
Sep 15
Last Quarter

Today's Extremes

State Highs State Lows

Community

WunderPhotos

Upload Photos

1,745,854 photos uploaded!

Nearby

Snow Depth

Station Depth Elevation
Seine Creek 0 in 2000 ft
Daly Lake 0 in 3600 ft
Peavine Ridge 0 in 3500 ft
Clackamas Lake 0 in 3400 ft
Santiam Junction 0 in 3750 ft

Earthquake Activity

City Distance Mag. Time & Date
No recent earthquake activity has been reported nearby.
Minimum magnitude displayed is 2.5.

Coastal Water Temperatures

Place Temperature
No Stations Reporting

Nearby Weather Stations